Time;durP1;ratioP1;P1;durP2;ratioP2;P2;SDS_P1;SDS_P2;PMS_P1;PMS_P2;Temp;Humidity;BMP_temperature;BMP_pressure;BME280_temperature;BME280_humidity;BME280_pressure;Samples;Min_cycle;Max_cycle;Signal;HPM_P1;HPM_P2
2021/08/06 00:01:17;;;;;;;5.97;5.57;;;22.30;65.40;;;;;;5115050;28;20184;-66
2021/08/06 00:03:43;;;;;;;6.70;6.20;;;22.30;65.40;;;;;;5115115;28;20201;-67
2021/08/06 00:06:08;;;;;;;6.82;6.32;;;22.30;65.40;;;;;;5114512;28;20516;-67
2021/08/06 00:08:34;;;;;;;6.72;6.20;;;22.30;65.40;;;;;;5096432;28;20177;-67
2021/08/06 00:11:01;;;;;;;6.53;6.03;;;22.30;65.30;;;;;;5115247;28;20173;-67
2021/08/06 00:13:26;;;;;;;6.80;6.10;;;22.30;65.40;;;;;;5096001;28;20173;-69
2021/08/06 00:15:52;;;;;;;6.60;6.05;;;22.30;65.30;;;;;;5115129;28;20180;-67
2021/08/06 00:18:17;;;;;;;6.28;5.78;;;22.30;65.30;;;;;;5114956;28;20192;-66
2021/08/06 00:20:44;;;;;;;6.32;5.93;;;22.20;65.20;;;;;;5114014;28;20229;-66
2021/08/06 00:23:09;;;;;;;5.93;5.50;;;22.20;65.20;;;;;;5115034;28;20177;-66
2021/08/06 00:25:35;;;;;;;6.32;5.82;;;22.20;65.20;;;;;;5114551;28;20607;-67
2021/08/06 00:28:00;;;;;;;6.20;5.68;;;22.20;65.20;;;;;;5114221;28;20216;-66
2021/08/06 00:30:27;;;;;;;6.25;5.78;;;22.20;65.20;;;;;;5114425;28;20208;-67
2021/08/06 00:32:52;;;;;;;6.38;5.78;;;22.20;65.20;;;;;;5114627;28;20639;-67
2021/08/06 00:35:18;;;;;;;6.03;5.53;;;22.20;65.20;;;;;;5113555;28;20173;-66
2021/08/06 00:37:44;;;;;;;6.65;6.15;;;22.20;65.20;;;;;;5114952;28;20177;-67
2021/08/06 00:40:10;;;;;;;6.35;5.85;;;22.20;65.20;;;;;;5114617;28;20170;-66
2021/08/06 00:42:35;;;;;;;5.82;5.40;;;22.20;65.20;;;;;;5113027;28;20748;-66
2021/08/06 00:45:01;;;;;;;6.18;5.70;;;22.20;65.20;;;;;;5114252;28;20217;-67
2021/08/06 00:47:26;;;;;;;5.72;5.32;;;22.30;65.20;;;;;;5113371;28;20176;-65
2021/08/06 00:49:52;;;;;;;6.10;5.70;;;22.20;65.30;;;;;;5095940;28;20169;-68
2021/08/06 00:52:17;;;;;;;6.88;6.38;;;22.20;65.20;;;;;;5095819;28;20161;-67
2021/08/06 00:54:43;;;;;;;5.68;5.28;;;22.20;65.20;;;;;;5095305;28;20169;-69
2021/08/06 00:57:14;;;;;;;5.53;5.22;;;22.20;65.20;;;;;;5114193;28;20246;-68
2021/08/06 00:59:40;;;;;;;5.97;5.53;;;22.20;65.20;;;;;;5113857;28;20176;-68
2021/08/06 01:02:13;;;;;;;5.47;5.18;;;22.20;65.20;;;;;;5113353;28;20177;-68
2021/08/06 01:04:54;;;;;;;6.07;5.68;;;22.20;65.20;;;;;;5096447;28;20217;-68
2021/08/06 01:07:29;;;;;;;5.72;5.32;;;22.20;65.20;;;;;;5096113;28;20180;-68
2021/08/06 01:09:56;;;;;;;6.35;5.88;;;22.20;65.20;;;;;;5095101;28;20184;-68
2021/08/06 01:12:33;;;;;;;5.57;5.18;;;22.20;65.20;;;;;;5113628;28;20169;-68
2021/08/06 01:15:00;;;;;;;5.60;5.20;;;22.20;65.20;;;;;;5113918;28;20631;-68
2021/08/06 01:17:26;;;;;;;5.72;5.32;;;22.20;65.20;;;;;;5112838;28;20656;-68
2021/08/06 01:20:31;;;;;;;5.20;4.72;;;22.20;65.20;;;;;;5095289;28;20217;-67
2021/08/06 01:23:16;;;;;;;5.57;5.18;;;22.20;65.20;;;;;;5109657;28;20185;-67
2021/08/06 01:25:49;;;;;;;5.45;5.05;;;22.20;65.20;;;;;;5095703;28;20217;-69
2021/08/06 01:28:17;;;;;;;5.68;5.28;;;22.20;65.20;;;;;;5113958;28;20273;-68
2021/08/06 01:30:43;;;;;;;5.32;4.93;;;22.20;65.20;;;;;;5094581;28;20181;-68
2021/08/06 01:33:09;;;;;;;5.18;4.78;;;22.20;65.20;;;;;;5113664;28;20196;-69
2021/08/06 01:35:34;;;;;;;5.10;4.75;;;22.20;65.20;;;;;;5113256;28;20173;-68
2021/08/06 01:38:00;;;;;;;5.22;4.90;;;22.20;65.20;;;;;;5112797;28;20189;-68
2021/08/06 01:40:25;;;;;;;5.75;5.35;;;22.20;65.20;;;;;;5113331;28;20173;-68
2021/08/06 01:43:13;;;;;;;5.38;4.97;;;22.20;65.20;;;;;;5113316;28;20581;-69
2021/08/06 01:45:40;;;;;;;5.68;5.28;;;22.20;65.20;;;;;;5093813;28;20709;-67
2021/08/06 01:48:07;;;;;;;5.18;4.80;;;22.10;65.10;;;;;;5094870;28;20177;-68
2021/08/06 01:50:34;;;;;;;5.35;4.97;;;22.20;65.20;;;;;;5094773;28;20197;-67
2021/08/06 01:53:12;;;;;;;5.63;5.22;;;22.10;65.10;;;;;;5094450;28;20187;-69
2021/08/06 01:55:45;;;;;;;5.20;4.80;;;22.10;65.10;;;;;;5112167;28;20223;-68
2021/08/06 01:58:11;;;;;;;5.40;5.00;;;22.10;65.10;;;;;;5095270;28;20671;-68
2021/08/06 02:00:37;;;;;;;4.93;4.60;;;22.10;65.10;;;;;;5112617;28;20180;-68
2021/08/06 02:03:02;;;;;;;5.25;4.85;;;22.10;65.20;;;;;;5094959;28;20177;-69
2021/08/06 02:05:28;;;;;;;5.40;5.00;;;22.10;65.20;;;;;;5093728;28;20204;-68
2021/08/06 02:07:54;;;;;;;4.82;4.53;;;22.10;65.20;;;;;;5094542;28;20165;-69
2021/08/06 02:10:19;;;;;;;5.25;4.85;;;22.10;65.20;;;;;;5112686;28;20570;-68
2021/08/06 02:12:45;;;;;;;5.22;4.82;;;22.20;65.20;;;;;;5093869;28;20272;-68
2021/08/06 02:15:11;;;;;;;4.90;4.53;;;22.10;65.20;;;;;;5094364;28;20200;-67
2021/08/06 02:17:37;;;;;;;4.88;4.47;;;22.10;65.20;;;;;;5094174;28;20174;-67
2021/08/06 02:20:04;;;;;;;5.53;5.13;;;22.10;65.20;;;;;;5093705;28;20224;-67
2021/08/06 02:22:29;;;;;;;5.63;5.22;;;22.10;65.20;;;;;;5094130;28;20257;-67
2021/08/06 02:24:55;;;;;;;4.43;4.07;;;22.10;65.20;;;;;;5094370;28;20395;-67
2021/08/06 02:27:20;;;;;;;4.63;4.32;;;22.10;65.20;;;;;;5093437;28;20212;-69
2021/08/06 02:29:46;;;;;;;4.68;4.38;;;22.10;65.20;;;;;;5094405;28;20184;-69
2021/08/06 02:32:12;;;;;;;4.80;4.50;;;22.10;65.30;;;;;;5094497;28;20165;-68
2021/08/06 02:34:38;;;;;;;4.68;4.38;;;22.10;65.20;;;;;;5111537;28;20180;-68
2021/08/06 02:37:03;;;;;;;4.43;4.13;;;22.10;65.20;;;;;;5094294;28;20503;-68
2021/08/06 02:39:29;;;;;;;8.63;4.40;;;22.10;65.20;;;;;;5112088;28;20169;-68
2021/08/06 02:41:56;;;;;;;4.85;4.40;;;22.10;65.20;;;;;;5111567;28;20177;-68
2021/08/06 02:44:21;;;;;;;4.68;4.38;;;22.10;65.20;;;;;;5111876;28;20646;-66
2021/08/06 02:46:47;;;;;;;4.80;4.38;;;22.10;65.20;;;;;;5112622;28;20669;-68
2021/08/06 02:49:12;;;;;;;5.10;4.70;;;22.10;65.20;;;;;;5111490;28;20176;-67
2021/08/06 02:51:38;;;;;;;5.00;4.60;;;22.10;65.20;;;;;;5111819;28;20514;-68
2021/08/06 02:54:03;;;;;;;4.30;4.00;;;22.10;65.20;;;;;;5111621;28;20184;-69
2021/08/06 02:56:29;;;;;;;4.53;4.13;;;22.10;65.20;;;;;;5111968;28;20622;-68
2021/08/06 02:58:54;;;;;;;4.88;4.47;;;22.10;65.20;;;;;;5112060;28;20172;-68
2021/08/06 03:01:20;;;;;;;4.20;3.90;;;22.10;65.20;;;;;;5110940;28;20486;-68
2021/08/06 03:03:46;;;;;;;4.50;4.20;;;22.10;65.30;;;;;;5111796;28;20181;-69
2021/08/06 03:06:12;;;;;;;4.50;4.20;;;22.10;65.30;;;;;;5111647;28;20177;-68
2021/08/06 03:08:37;;;;;;;4.25;3.95;;;22.10;65.20;;;;;;5110863;28;20172;-68
2021/08/06 03:11:03;;;;;;;4.20;3.90;;;22.10;65.20;;;;;;5111899;28;20595;-68
2021/08/06 03:13:28;;;;;;;4.60;4.25;;;22.00;65.20;;;;;;5111472;28;20643;-68
2021/08/06 03:15:54;;;;;;;4.20;3.90;;;22.00;65.20;;;;;;5111395;28;20269;-68
2021/08/06 03:18:19;;;;;;;4.70;4.30;;;22.10;65.20;;;;;;5111651;28;20241;-67
2021/08/06 03:20:45;;;;;;;4.30;4.00;;;22.00;65.20;;;;;;5111526;28;20254;-67
2021/08/06 03:23:10;;;;;;;4.18;3.88;;;22.00;65.20;;;;;;5111092;28;20635;-67
2021/08/06 03:25:36;;;;;;;4.53;4.13;;;22.10;65.30;;;;;;5111306;28;20683;-67
2021/08/06 03:28:01;;;;;;;4.28;3.97;;;22.00;65.40;;;;;;5111597;28;20173;-67
2021/08/06 03:30:27;;;;;;;4.63;4.32;;;22.00;65.30;;;;;;5110751;28;20255;-67
2021/08/06 03:32:53;;;;;;;4.03;3.72;;;22.00;65.30;;;;;;5111793;28;20697;-68
2021/08/06 03:35:18;;;;;;;4.43;4.13;;;22.00;65.20;;;;;;5111431;28;20177;-69
2021/08/06 03:37:44;;;;;;;4.28;4.00;;;22.00;65.40;;;;;;5111123;28;20518;-68
2021/08/06 03:40:10;;;;;;;3.88;3.67;;;22.00;65.30;;;;;;5111635;28;20622;-69
2021/08/06 03:42:36;;;;;;;4.32;3.92;;;22.00;65.30;;;;;;5111177;28;20188;-67
2021/08/06 03:45:01;;;;;;;4.07;3.78;;;22.00;65.30;;;;;;5110738;28;20284;-69
2021/08/06 03:47:27;;;;;;;3.92;3.63;;;22.00;65.30;;;;;;5111411;28;20282;-68
2021/08/06 03:49:52;;;;;;;4.00;3.70;;;22.00;65.30;;;;;;5111732;28;20166;-68
2021/08/06 03:52:18;;;;;;;4.10;3.90;;;22.00;65.40;;;;;;5110371;28;20521;-68
2021/08/06 03:54:43;;;;;;;4.10;3.45;;;22.00;65.30;;;;;;5111419;28;20222;-69
2021/08/06 03:57:09;;;;;;;3.58;3.38;;;22.00;65.40;;;;;;5111438;28;20165;-68
2021/08/06 03:59:34;;;;;;;3.53;3.33;;;22.00;65.70;;;;;;5110281;28;20174;-67
2021/08/06 04:02:00;;;;;;;3.72;3.47;;;22.00;65.70;;;;;;5111645;28;20245;-68
2021/08/06 04:04:26;;;;;;;4.03;3.72;;;22.00;65.40;;;;;;5110505;28;20273;-68
2021/08/06 04:06:51;;;;;;;3.92;3.58;;;22.00;65.60;;;;;;5111363;28;20289;-68
2021/08/06 04:09:17;;;;;;;4.10;3.80;;;22.00;65.50;;;;;;5111114;28;20277;-67
2021/08/06 04:11:42;;;;;;;4.03;3.72;;;22.00;65.40;;;;;;5110675;28;20245;-70
2021/08/06 04:14:08;;;;;;;3.88;3.67;;;22.00;65.40;;;;;;5111117;28;20228;-67
2021/08/06 04:16:33;;;;;;;3.60;3.40;;;22.00;65.40;;;;;;5110998;28;20199;-66
2021/08/06 04:18:59;;;;;;;3.45;3.25;;;22.00;65.40;;;;;;5114025;28;20176;-66
2021/08/06 04:21:24;;;;;;;4.05;3.75;;;22.00;65.40;;;;;;5114550;28;20259;-65
2021/08/06 04:23:50;;;;;;;4.00;3.70;;;22.00;65.40;;;;;;5115010;28;20201;-68
2021/08/06 04:26:15;;;;;;;3.60;3.40;;;21.90;65.40;;;;;;5113928;28;20216;-67
2021/08/06 04:28:41;;;;;;;3.92;3.63;;;22.00;65.40;;;;;;5114971;28;20255;-66
2021/08/06 04:31:07;;;;;;;3.70;3.40;;;22.00;65.40;;;;;;5115180;28;20252;-66
2021/08/06 04:33:32;;;;;;;3.83;3.53;;;22.00;65.40;;;;;;5113867;28;20261;-68
2021/08/06 04:35:58;;;;;;;3.53;3.33;;;22.00;65.40;;;;;;5114888;28;20576;-70
2021/08/06 04:38:27;;;;;;;3.42;3.22;;;22.00;65.40;;;;;;5114414;28;20199;-68
2021/08/06 04:40:52;;;;;;;3.33;3.13;;;22.00;65.40;;;;;;5114096;28;20234;-69
2021/08/06 04:43:21;;;;;;;3.15;2.95;;;22.00;65.40;;;;;;5114293;28;20182;-69
2021/08/06 04:45:47;;;;;;;3.58;3.28;;;22.00;65.50;;;;;;5114718;28;20212;-66
2021/08/06 04:48:17;;;;;;;3.50;3.30;;;22.00;65.40;;;;;;5113924;28;20219;-65
2021/08/06 04:50:43;;;;;;;3.70;3.40;;;22.00;65.40;;;;;;5114572;28;20218;-66
2021/08/06 04:53:08;;;;;;;3.88;3.58;;;21.90;65.30;;;;;;5114325;28;20578;-66
2021/08/06 04:55:34;;;;;;;3.17;2.97;;;21.90;65.30;;;;;;5113394;28;20260;-66
2021/08/06 04:57:59;;;;;;;3.47;3.28;;;21.90;65.40;;;;;;5114191;28;20173;-66
2021/08/06 05:00:25;;;;;;;3.72;3.42;;;21.90;65.40;;;;;;5114156;28;20385;-66
2021/08/06 05:02:50;;;;;;;3.30;3.10;;;21.90;65.30;;;;;;5113710;28;20197;-67
2021/08/06 05:05:16;;;;;;;3.42;3.22;;;21.90;65.40;;;;;;5113627;28;20225;-67
2021/08/06 05:07:48;;;;;;;3.35;3.05;;;21.90;65.30;;;;;;5113340;28;20189;-67
2021/08/06 05:10:14;;;;;;;3.08;2.88;;;21.90;65.30;;;;;;5096456;28;20648;-67
2021/08/06 05:12:39;;;;;;;3.30;3.10;;;22.00;65.40;;;;;;5114191;28;20199;-68
2021/08/06 05:15:05;;;;;;;3.65;3.40;;;22.00;65.40;;;;;;5113643;28;20323;-68
2021/08/06 05:17:31;;;;;;;3.40;3.20;;;22.00;65.40;;;;;;5113909;28;20229;-67
2021/08/06 05:19:56;;;;;;;3.30;3.05;;;22.00;65.40;;;;;;5113753;28;20228;-67
2021/08/06 05:22:22;;;;;;;3.05;2.85;;;21.90;65.30;;;;;;5112878;28;20169;-67
2021/08/06 05:24:47;;;;;;;3.15;2.95;;;21.90;65.40;;;;;;5113722;28;20189;-67
2021/08/06 05:27:13;;;;;;;3.00;2.80;;;21.90;65.40;;;;;;5113915;28;20506;-67
2021/08/06 05:29:38;;;;;;;3.60;2.90;;;22.00;65.40;;;;;;5112673;28;20165;-68
2021/08/06 05:32:04;;;;;;;3.00;2.80;;;21.90;65.40;;;;;;5113705;28;20288;-67
2021/08/06 05:34:30;;;;;;;2.58;2.47;;;21.90;65.30;;;;;;5113305;28;20256;-68
2021/08/06 05:36:55;;;;;;;3.20;3.00;;;21.90;65.40;;;;;;5113019;28;20227;-67
2021/08/06 05:39:21;;;;;;;3.05;2.85;;;22.00;65.50;;;;;;5113360;28;20218;-66
2021/08/06 05:41:46;;;;;;;3.10;2.90;;;22.00;65.40;;;;;;5113833;28;20219;-67
2021/08/06 05:44:12;;;;;;;3.33;3.05;;;22.00;65.30;;;;;;5113053;28;20571;-67
2021/08/06 05:46:37;;;;;;;3.03;2.83;;;22.00;65.30;;;;;;5113779;28;20169;-67
2021/08/06 05:49:03;;;;;;;3.15;2.95;;;22.00;65.30;;;;;;5113454;28;20199;-68
2021/08/06 05:51:28;;;;;;;3.05;2.85;;;22.00;65.30;;;;;;5112467;28;20701;-68
2021/08/06 05:53:54;;;;;;;2.72;2.55;;;22.00;65.30;;;;;;5113243;28;20173;-67
2021/08/06 05:56:19;;;;;;;2.90;2.70;;;22.00;65.30;;;;;;5113037;28;20173;-67
2021/08/06 05:58:48;;;;;;;2.80;2.60;;;22.00;65.40;;;;;;5112769;28;20180;-67
2021/08/06 06:01:13;;;;;;;2.60;2.40;;;22.00;65.30;;;;;;5112982;28;20758;-67
2021/08/06 06:03:39;;;;;;;3.10;2.83;;;22.00;65.30;;;;;;5112428;28;20412;-67
2021/08/06 06:06:04;;;;;;;2.97;2.78;;;22.00;65.30;;;;;;5112230;28;20661;-68
2021/08/06 06:08:30;;;;;;;3.08;2.88;;;22.00;65.60;;;;;;5112572;28;20246;-68
2021/08/06 06:10:55;;;;;;;3.28;3.05;;;22.00;65.50;;;;;;5112614;28;20201;-68
2021/08/06 06:13:21;;;;;;;3.08;2.88;;;22.00;65.40;;;;;;5112988;28;20169;-67
2021/08/06 06:15:46;;;;;;;3.28;3.08;;;22.00;65.40;;;;;;5113114;28;20480;-69
2021/08/06 06:18:12;;;;;;;2.97;2.78;;;22.00;65.50;;;;;;5112172;28;20944;-68
2021/08/06 06:20:37;;;;;;;2.97;2.78;;;22.00;65.70;;;;;;5112541;28;20315;-68
2021/08/06 06:23:03;;;;;;;2.92;2.72;;;22.00;65.80;;;;;;5112730;28;20551;-64
2021/08/06 06:25:29;;;;;;;2.70;2.50;;;22.00;65.50;;;;;;5111948;28;20209;-65
2021/08/06 06:28:00;;;;;;;2.88;2.67;;;22.00;65.60;;;;;;5112796;28;20215;-64
2021/08/06 06:30:27;;;;;;;3.30;3.00;;;22.00;65.70;;;;;;5112390;28;20277;-63
2021/08/06 06:32:53;;;;;;;2.83;2.63;;;22.00;65.60;;;;;;5111785;28;20205;-65
2021/08/06 06:35:18;;;;;;;2.95;2.75;;;22.00;65.60;;;;;;5112247;28;20276;-64
2021/08/06 06:37:44;;;;;;;2.70;2.50;;;22.00;65.50;;;;;;5112200;28;20651;-64
2021/08/06 06:40:10;;;;;;;2.92;2.67;;;22.00;65.60;;;;;;5111290;28;20588;-64
2021/08/06 06:42:36;;;;;;;2.65;2.45;;;22.00;65.60;;;;;;5111907;28;20181;-64
2021/08/06 06:45:01;;;;;;;2.78;2.58;;;22.00;65.70;;;;;;5112238;28;20212;-72
2021/08/06 06:47:35;;;;;;;2.72;2.53;;;22.00;65.70;;;;;;5111184;28;20180;-70
2021/08/06 06:50:00;;;;;;;3.10;2.80;;;22.00;66.30;;;;;;5112229;28;20185;-68
2021/08/06 06:52:29;;;;;;;2.65;2.45;;;22.00;65.80;;;;;;5111756;28;20256;-67
2021/08/06 06:54:54;;;;;;;2.67;2.47;;;22.10;66.20;;;;;;5111607;28;20165;-68
2021/08/06 06:57:20;;;;;;;2.88;2.50;;;22.00;66.40;;;;;;5111950;28;20188;-68
2021/08/06 06:59:45;;;;;;;3.33;2.78;;;22.00;66.00;;;;;;5112006;28;20165;-68
2021/08/06 07:02:14;;;;;;;2.47;2.20;;;22.00;66.00;;;;;;5111056;28;20177;-68
2021/08/06 07:04:39;;;;;;;3.03;2.70;;;22.00;66.00;;;;;;5111416;28;20236;-68
2021/08/06 07:07:05;;;;;;;8.25;2.70;;;22.00;66.10;;;;;;5111540;28;20238;-68
2021/08/06 07:09:30;;;;;;;2.92;2.38;;;22.00;66.00;;;;;;5110971;28;20635;-67
2021/08/06 07:11:56;;;;;;;2.67;2.47;;;22.00;66.00;;;;;;5111549;28;20225;-68
2021/08/06 07:14:24;;;;;;;2.65;2.45;;;22.00;66.10;;;;;;5110748;28;20169;-68
2021/08/06 07:16:50;;;;;;;2.92;2.72;;;22.00;66.00;;;;;;5111765;28;20203;-67
2021/08/06 07:19:15;;;;;;;2.15;2.05;;;22.00;65.90;;;;;;5111599;28;20516;-68
2021/08/06 07:21:46;;;;;;;2.72;2.47;;;22.00;65.90;;;;;;5110731;28;20402;-67
2021/08/06 07:24:12;;;;;;;2.63;2.20;;;22.10;65.90;;;;;;5111705;28;20235;-66
2021/08/06 07:26:38;;;;;;;2.58;2.03;;;22.10;65.80;;;;;;5111388;28;20627;-67
2021/08/06 07:29:03;;;;;;;2.47;2.28;;;22.20;65.70;;;;;;5111060;28;20192;-67
2021/08/06 07:31:29;;;;;;;3.30;2.00;;;22.30;65.90;;;;;;5111339;28;20177;-68
2021/08/06 07:33:54;;;;;;;3.28;2.33;;;22.30;65.90;;;;;;5111478;28;20168;-67
2021/08/06 07:36:20;;;;;;;2.53;2.05;;;22.30;66.10;;;;;;5110524;28;20181;-66
2021/08/06 07:38:48;;;;;;;3.30;1.77;;;22.30;66.30;;;;;;5111627;28;20169;-67
2021/08/06 07:41:14;;;;;;;2.45;1.83;;;22.30;66.30;;;;;;5111391;28;20176;-66
2021/08/06 07:43:39;;;;;;;2.63;2.20;;;22.30;66.50;;;;;;5110370;28;20653;-66
2021/08/06 07:46:05;;;;;;;3.15;2.08;;;22.40;66.60;;;;;;5111228;28;20246;-66
2021/08/06 07:48:30;;;;;;;2.22;2.03;;;22.40;66.70;;;;;;5111212;28;20248;-65
2021/08/06 07:50:56;;;;;;;2.22;2.03;;;22.40;66.90;;;;;;5110782;28;20235;-66
2021/08/06 07:53:21;;;;;;;3.50;2.10;;;22.30;66.80;;;;;;5113618;28;20166;-66
2021/08/06 07:55:47;;;;;;;1.90;1.80;;;22.30;67.00;;;;;;5115461;28;20206;-68
2021/08/06 07:58:12;;;;;;;1.80;1.70;;;22.30;66.90;;;;;;5114523;28;20191;-67
2021/08/06 08:00:38;;;;;;;2.05;1.95;;;22.40;67.00;;;;;;5123450;27;20540;-66
2021/08/06 08:03:03;;;;;;;2.50;2.28;;;22.40;66.90;;;;;;5123987;27;20641;-67
2021/08/06 08:05:29;;;;;;;2.00;1.90;;;22.40;67.80;;;;;;5124208;27;20196;-65
2021/08/06 08:07:54;;;;;;;2.30;2.10;;;22.40;66.90;;;;;;5123214;27;20184;-65
2021/08/06 08:10:20;;;;;;;2.10;1.73;;;22.40;66.80;;;;;;5124101;27;20179;-63
2021/08/06 08:12:46;;;;;;;2.42;2.22;;;22.50;66.50;;;;;;5124157;27;20616;-65
2021/08/06 08:15:12;;;;;;;2.10;2.00;;;22.50;66.40;;;;;;5122833;27;20197;-65
2021/08/06 08:17:37;;;;;;;2.20;2.10;;;22.50;66.40;;;;;;5123276;27;20268;-65
2021/08/06 08:20:04;;;;;;;2.38;2.00;;;22.50;66.60;;;;;;5124055;27;20369;-63
2021/08/06 08:22:29;;;;;;;2.40;2.22;;;22.50;66.60;;;;;;5122490;27;20169;-63
2021/08/06 08:24:55;;;;;;;2.83;2.10;;;22.50;66.70;;;;;;5123895;27;20204;-63
2021/08/06 08:27:20;;;;;;;3.08;2.50;;;22.50;66.60;;;;;;5123303;27;20207;-63
2021/08/06 08:29:49;;;;;;;2.92;2.70;;;22.50;66.50;;;;;;5122861;27;20514;-63
2021/08/06 08:32:15;;;;;;;3.83;2.40;;;22.50;66.50;;;;;;5122159;27;20157;-64
2021/08/06 08:34:40;;;;;;;2.78;2.58;;;22.50;66.30;;;;;;5123628;27;20691;-65
2021/08/06 08:37:06;;;;;;;3.00;2.80;;;22.50;66.30;;;;;;5123999;27;20173;-64
2021/08/06 08:39:31;;;;;;;4.60;2.83;;;22.50;66.30;;;;;;5121094;27;20226;-63
2021/08/06 08:42:02;;;;;;;2.60;2.40;;;22.50;66.30;;;;;;5124063;27;20193;-64
2021/08/06 08:44:34;;;;;;;2.80;2.60;;;22.50;66.30;;;;;;5106910;27;20513;-64
2021/08/06 08:47:00;;;;;;;3.53;2.78;;;22.50;66.20;;;;;;5134020;27;20263;-65
2021/08/06 08:49:28;;;;;;;2.55;2.35;;;22.50;66.00;;;;;;5134806;27;20183;-65
2021/08/06 08:51:54;;;;;;;3.03;2.55;;;22.50;66.80;;;;;;5134960;27;20183;-66
2021/08/06 08:54:19;;;;;;;3.70;3.08;;;22.50;65.80;;;;;;5133742;27;20248;-65
2021/08/06 08:56:45;;;;;;;4.40;3.28;;;22.50;66.00;;;;;;5134781;27;20176;-65
2021/08/06 08:59:10;;;;;;;2.85;2.60;;;22.50;66.10;;;;;;5134604;27;20183;-65
2021/08/06 09:01:36;;;;;;;2.97;2.67;;;22.50;65.80;;;;;;5133544;27;20192;-66
2021/08/06 09:04:08;;;;;;;3.08;2.78;;;22.50;65.70;;;;;;5134420;27;20200;-65
2021/08/06 09:06:41;;;;;;;3.78;2.97;;;22.50;65.60;;;;;;5099785;27;20176;-65
2021/08/06 09:09:21;;;;;;;3.97;3.08;;;22.50;65.40;;;;;;5134746;27;20486;-64
2021/08/06 09:11:47;;;;;;;3.75;3.08;;;22.50;65.30;;;;;;5134583;27;20215;-67
2021/08/06 09:14:21;;;;;;;3.30;3.00;;;22.60;65.00;;;;;;5132894;27;20191;-65
2021/08/06 09:17:10;;;;;;;3.65;3.20;;;22.60;64.70;;;;;;5133998;27;20629;-65
2021/08/06 09:19:36;;;;;;;3.45;2.80;;;22.70;64.50;;;;;;5133780;27;20215;-65
2021/08/06 09:22:21;;;;;;;4.15;2.72;;;22.80;64.30;;;;;;5133543;27;20478;-65
2021/08/06 09:25:09;;;;;;;2.20;2.10;;;22.80;64.20;;;;;;5134685;27;20272;-65
2021/08/06 09:27:36;;;;;;;2.97;2.30;;;22.70;64.40;;;;;;5133834;27;20956;-65
2021/08/06 09:30:05;;;;;;;3.00;2.67;;;22.80;64.70;;;;;;5133563;27;20184;-65
2021/08/06 09:32:44;;;;;;;3.13;2.33;;;22.80;64.60;;;;;;5133714;27;20252;-66
2021/08/06 09:35:16;;;;;;;3.45;2.63;;;22.80;64.70;;;;;;5133460;27;20180;-67
2021/08/06 09:37:41;;;;;;;2.92;2.60;;;22.70;64.80;;;;;;5134426;27;20176;-66
2021/08/06 09:40:15;;;;;;;3.25;2.70;;;22.70;65.00;;;;;;5133948;27;20183;-66
2021/08/06 09:42:47;;;;;;;4.20;2.95;;;22.60;65.20;;;;;;5133199;27;20187;-67
2021/08/06 09:45:14;;;;;;;3.20;2.75;;;22.70;65.40;;;;;;5133560;27;20212;-65
2021/08/06 09:47:40;;;;;;;4.25;2.80;;;22.70;65.50;;;;;;5133613;27;20173;-65
2021/08/06 09:50:07;;;;;;;3.83;2.70;;;22.80;65.30;;;;;;5132742;27;20187;-66
2021/08/06 09:52:34;;;;;;;3.10;2.28;;;22.80;65.30;;;;;;5133428;27;20196;-66
2021/08/06 09:55:00;;;;;;;3.83;2.50;;;22.80;65.40;;;;;;5133551;27;20263;-66
2021/08/06 09:57:26;;;;;;;2.95;2.63;;;22.80;65.30;;;;;;5132358;27;20259;-65
2021/08/06 09:59:55;;;;;;;2.60;2.40;;;22.80;65.40;;;;;;5133336;27;20237;-65
2021/08/06 10:02:25;;;;;;;4.05;2.60;;;23.00;65.10;;;;;;5133287;27;20179;-66
2021/08/06 10:04:58;;;;;;;3.50;2.83;;;22.90;65.10;;;;;;5132685;27;20207;-66
2021/08/06 10:07:25;;;;;;;3.67;2.35;;;22.90;65.10;;;;;;5133056;27;20169;-66
2021/08/06 10:09:50;;;;;;;2.42;2.33;;;23.00;65.10;;;;;;5133097;27;20173;-66
2021/08/06 10:12:16;;;;;;;3.63;2.20;;;23.00;65.20;;;;;;5131918;27;20172;-66
2021/08/06 10:14:41;;;;;;;4.72;2.70;;;23.00;65.10;;;;;;5132586;27;20179;-64
2021/08/06 10:17:07;;;;;;;3.15;2.75;;;23.00;65.20;;;;;;5132167;27;20267;-64
2021/08/06 10:19:35;;;;;;;4.32;2.80;;;23.00;65.40;;;;;;5114306;27;20559;-63
2021/08/06 10:22:01;;;;;;;6.72;2.50;;;23.00;66.20;;;;;;5115208;27;20272;-63
2021/08/06 10:24:27;;;;;;;2.50;2.30;;;23.00;65.60;;;;;;5096672;27;20294;-63
2021/08/06 10:26:52;;;;;;;6.22;2.40;;;22.90;65.60;;;;;;5114656;27;20601;-65
2021/08/06 10:29:21;;;;;;;2.95;2.03;;;22.90;65.70;;;;;;5114684;27;20181;-65
2021/08/06 10:32:10;;;;;;;2.20;2.00;;;22.90;65.60;;;;;;5132413;27;20214;-67
2021/08/06 10:35:08;;;;;;;3.15;2.35;;;22.90;65.60;;;;;;5132145;27;20186;-67
2021/08/06 10:37:54;;;;;;;4.35;2.20;;;22.90;65.60;;;;;;5132445;27;20312;-66
2021/08/06 10:40:32;;;;;;;4.18;2.30;;;22.90;65.60;;;;;;5131739;27;20176;-66
2021/08/06 10:43:30;;;;;;;2.80;2.50;;;22.90;65.60;;;;;;5132836;27;20179;-67
2021/08/06 10:45:55;;;;;;;3.50;2.83;;;22.90;65.70;;;;;;5117751;27;20216;-67
2021/08/06 10:48:34;;;;;;;4.85;3.05;;;22.90;65.70;;;;;;5132625;27;20252;-66
2021/08/06 10:51:18;;;;;;;4.55;2.42;;;22.90;65.70;;;;;;5132709;27;20204;-67
2021/08/06 10:53:48;;;;;;;2.42;2.22;;;23.00;65.70;;;;;;5131481;27;20215;-67
2021/08/06 10:56:16;;;;;;;3.10;2.70;;;23.00;65.60;;;;;;5131714;27;20183;-67
2021/08/06 10:58:53;;;;;;;2.90;2.38;;;23.10;65.60;;;;;;5131533;27;20202;-67
2021/08/06 11:01:31;;;;;;;3.70;2.72;;;23.10;65.40;;;;;;5131543;27;20181;-67
2021/08/06 11:04:04;;;;;;;5.18;2.83;;;23.00;65.50;;;;;;5132331;27;20177;-67
2021/08/06 11:06:52;;;;;;;4.60;2.50;;;23.00;65.20;;;;;;5131325;27;20244;-67
2021/08/06 11:09:24;;;;;;;2.72;2.22;;;23.10;65.20;;;;;;5131938;27;20221;-67
2021/08/06 11:11:52;;;;;;;4.05;2.38;;;23.10;65.20;;;;;;5132142;27;20177;-68
2021/08/06 11:14:29;;;;;;;4.20;2.35;;;23.00;65.30;;;;;;5131189;27;20252;-67
2021/08/06 11:17:04;;;;;;;2.85;2.63;;;23.00;65.40;;;;;;5132097;27;20275;-67
2021/08/06 11:19:31;;;;;;;2.95;1.92;;;22.90;65.40;;;;;;5131831;27;20260;-66
2021/08/06 11:21:56;;;;;;;2.20;1.90;;;22.90;65.50;;;;;;5131465;27;20564;-66
2021/08/06 11:24:22;;;;;;;4.22;2.20;;;22.90;65.50;;;;;;5131720;28;20204;-66
2021/08/06 11:26:48;;;;;;;4.55;2.22;;;22.90;65.50;;;;;;5135347;27;20259;-66
2021/08/06 11:29:14;;;;;;;3.35;2.33;;;23.00;65.40;;;;;;5138243;27;20173;-67
2021/08/06 11:31:40;;;;;;;5.13;2.50;;;23.00;65.20;;;;;;5138505;27;20244;-67
2021/08/06 11:34:06;;;;;;;6.63;2.50;;;23.10;65.10;;;;;;5138979;27;20217;-68
2021/08/06 11:36:31;;;;;;;2.55;2.35;;;23.10;64.90;;;;;;5137788;27;20191;-67
2021/08/06 11:39:02;;;;;;;4.05;2.83;;;23.10;64.90;;;;;;5138899;27;20584;-67
2021/08/06 11:41:29;;;;;;;3.10;2.47;;;23.20;64.80;;;;;;5137988;27;20168;-67
2021/08/06 11:43:55;;;;;;;2.30;1.92;;;23.20;64.50;;;;;;5138818;27;20253;-67
2021/08/06 11:46:20;;;;;;;2.70;2.28;;;23.20;64.50;;;;;;5103481;27;20536;-67
2021/08/06 11:48:53;;;;;;;3.97;1.98;;;23.20;64.50;;;;;;5138633;27;20245;-68
2021/08/06 11:51:18;;;;;;;2.65;2.15;;;23.30;64.30;;;;;;5138783;27;20172;-67
2021/08/06 11:53:44;;;;;;;3.30;2.13;;;23.30;64.40;;;;;;5139108;27;20249;-67
2021/08/06 11:56:20;;;;;;;2.40;2.15;;;23.30;64.40;;;;;;5138331;27;20255;-69
2021/08/06 11:58:46;;;;;;;2.80;2.00;;;23.40;64.30;;;;;;5138887;27;20180;-69
2021/08/06 12:01:17;;;;;;;1.95;1.77;;;23.40;64.30;;;;;;5139278;27;20172;-69
2021/08/06 12:03:44;;;;;;;2.65;2.00;;;23.40;64.10;;;;;;5138242;27;20652;-68
2021/08/06 12:06:09;;;;;;;1.92;1.83;;;23.40;64.10;;;;;;5139068;27;20208;-67
2021/08/06 12:08:35;;;;;;;3.45;2.10;;;23.50;63.90;;;;;;5138660;27;20180;-67
2021/08/06 12:11:06;;;;;;;3.90;2.30;;;23.50;64.00;;;;;;5138031;27;20214;-67
2021/08/06 12:13:40;;;;;;;3.55;2.25;;;23.50;63.80;;;;;;5138749;27;20301;-67
2021/08/06 12:16:15;;;;;;;1.92;1.83;;;23.50;63.70;;;;;;5138809;27;20168;-67
2021/08/06 12:18:44;;;;;;;2.15;1.90;;;23.40;63.90;;;;;;5138091;27;20167;-67
2021/08/06 12:21:14;;;;;;;2.55;1.80;;;23.30;64.10;;;;;;5120009;27;20737;-66
2021/08/06 12:23:43;;;;;;;2.22;1.80;;;23.30;64.30;;;;;;5137743;27;20177;-66
2021/08/06 12:26:40;;;;;;;2.40;2.05;;;23.20;64.50;;;;;;5138375;27;20757;-66
2021/08/06 12:29:20;;;;;;;1.77;1.67;;;23.20;64.60;;;;;;5138598;27;20590;-67
2021/08/06 12:31:57;;;;;;;2.13;1.85;;;23.10;64.50;;;;;;5137730;27;20658;-68
2021/08/06 12:34:31;;;;;;;2.00;1.80;;;23.10;64.70;;;;;;5138430;27;20259;-68
2021/08/06 12:37:02;;;;;;;3.75;1.95;;;23.10;64.80;;;;;;5138704;27;20198;-68
2021/08/06 12:39:29;;;;;;;3.15;2.08;;;23.00;64.90;;;;;;5133561;27;20599;-66
2021/08/06 12:41:55;;;;;;;2.45;1.85;;;23.00;65.00;;;;;;5135166;27;20176;-67
2021/08/06 12:44:20;;;;;;;2.03;1.83;;;23.00;65.00;;;;;;5134636;27;20196;-67
2021/08/06 12:47:04;;;;;;;2.42;2.22;;;23.00;64.90;;;;;;5134776;27;20199;-67
2021/08/06 12:49:31;;;;;;;1.80;1.70;;;23.10;64.70;;;;;;5134953;27;20259;-67
2021/08/06 12:51:58;;;;;;;2.92;1.60;;;23.10;64.50;;;;;;5134521;27;20592;-67